sensor_id;sensor_type;location;lat;lon;timestamp;pressure;altitude;pressure_sealevel;temperature;humidity
10940;BME280;5522;42.696;23.494;2023-04-01T00:01:26;53703.03;;;-139.68;100.00
10940;BME280;5522;42.696;23.494;2023-04-01T00:03:53;53719.13;;;-139.68;100.00
10940;BME280;5522;42.696;23.494;2023-04-01T00:06:21;53721.13;;;-139.68;100.00
10940;BME280;5522;42.696;23.494;2023-04-01T00:08:48;53678.91;;;-139.68;100.00
10940;BME280;5522;42.696;23.494;2023-04-01T00:11:17;53727.16;;;-139.68;100.00
10940;BME280;5522;42.696;23.494;2023-04-01T00:13:44;53743.25;;;-139.68;100.00
10940;BME280;5522;42.696;23.494;2023-04-01T00:16:11;53739.22;;;-139.68;100.00
10940;BME280;5522;42.696;23.494;2023-04-01T00:18:38;53703.03;;;-139.68;100.00
10940;BME280;5522;42.696;23.494;2023-04-01T00:21:06;53719.13;;;-139.68;100.00
10940;BME280;5522;42.696;23.494;2023-04-01T00:23:33;53711.09;;;-139.68;100.00
10940;BME280;5522;42.696;23.494;2023-04-01T00:26:01;53701.03;;;-139.68;100.00
10940;BME280;5522;42.696;23.494;2023-04-01T00:28:29;53735.19;;;-139.68;100.00
10940;BME280;5522;42.696;23.494;2023-04-01T00:30:56;53747.25;;;-139.68;100.00
10940;BME280;5522;42.696;23.494;2023-04-01T00:33:23;53703.03;;;-139.68;100.00
10940;BME280;5522;42.696;23.494;2023-04-01T00:35:50;53699.03;;;-139.68;100.00
10940;BME280;5522;42.696;23.494;2023-04-01T00:38:16;53686.97;;;-139.68;100.00
10940;BME280;5522;42.696;23.494;2023-04-01T00:40:45;53711.09;;;-139.68;100.00
10940;BME280;5522;42.696;23.494;2023-04-01T00:43:15;53725.16;;;-139.68;100.00
10940;BME280;5522;42.696;23.494;2023-04-01T00:45:46;53711.09;;;-139.68;100.00
10940;BME280;5522;42.696;23.494;2023-04-01T00:48:16;53699.03;;;-139.68;100.00
10940;BME280;5522;42.696;23.494;2023-04-01T00:50:47;53743.25;;;-139.68;100.00
10940;BME280;5522;42.696;23.494;2023-04-01T00:53:14;53749.28;;;-139.68;100.00
10940;BME280;5522;42.696;23.494;2023-04-01T00:55:54;53727.16;;;-139.68;100.00
10940;BME280;5522;42.696;23.494;2023-04-01T00:58:25;53721.13;;;-139.68;100.00
10940;BME280;5522;42.696;23.494;2023-04-01T01:06:10;53693.00;;;-139.68;100.00
10940;BME280;5522;42.696;23.494;2023-04-01T01:08:57;53703.03;;;-139.68;100.00
10940;BME280;5522;42.696;23.494;2023-04-01T01:11:36;53715.09;;;-139.68;100.00
10940;BME280;5522;42.696;23.494;2023-04-01T01:14:10;53711.09;;;-139.68;100.00
10940;BME280;5522;42.696;23.494;2023-04-01T01:16:44;53715.09;;;-139.68;100.00
10940;BME280;5522;42.696;23.494;2023-04-01T01:19:30;53678.91;;;-139.68;100.00
10940;BME280;5522;42.696;23.494;2023-04-01T01:22:21;53705.06;;;-139.68;100.00
10940;BME280;5522;42.696;23.494;2023-04-01T01:25:04;53684.94;;;-139.68;100.00
10940;BME280;5522;42.696;23.494;2023-04-01T01:27:38;53701.03;;;-139.68;100.00
10940;BME280;5522;42.696;23.494;2023-04-01T01:30:20;53713.09;;;-139.68;100.00
10940;BME280;5522;42.696;23.494;2023-04-01T01:33:13;53735.19;;;-139.68;100.00
10940;BME280;5522;42.696;23.494;2023-04-01T01:35:47;53707.06;;;-139.68;100.00
10940;BME280;5522;42.696;23.494;2023-04-01T01:38:17;53703.03;;;-139.68;100.00
10940;BME280;5522;42.696;23.494;2023-04-01T01:40:48;53711.09;;;-139.68;100.00
10940;BME280;5522;42.696;23.494;2023-04-01T01:43:21;53731.19;;;-139.68;100.00
10940;BME280;5522;42.696;23.494;2023-04-01T01:45:50;53711.09;;;-139.68;100.00
10940;BME280;5522;42.696;23.494;2023-04-01T01:48:19;53721.13;;;-139.68;100.00
10940;BME280;5522;42.696;23.494;2023-04-01T01:50:48;53735.19;;;-139.68;100.00
10940;BME280;5522;42.696;23.494;2023-04-01T01:53:16;53723.13;;;-139.68;100.00
10940;BME280;5522;42.696;23.494;2023-04-01T01:55:44;53747.25;;;-139.68;100.00
10940;BME280;5522;42.696;23.494;2023-04-01T01:58:16;53711.09;;;-139.68;100.00
10940;BME280;5522;42.696;23.494;2023-04-01T02:00:48;53707.06;;;-139.68;100.00
10940;BME280;5522;42.696;23.494;2023-04-01T02:03:17;53725.16;;;-139.68;100.00
10940;BME280;5522;42.696;23.494;2023-04-01T02:05:47;53743.25;;;-139.68;100.00
10940;BME280;5522;42.696;23.494;2023-04-01T02:08:20;53711.09;;;-139.68;100.00
10940;BME280;5522;42.696;23.494;2023-04-01T02:10:56;53727.16;;;-139.68;100.00
10940;BME280;5522;42.696;23.494;2023-04-01T02:13:27;53729.16;;;-139.68;100.00
10940;BME280;5522;42.696;23.494;2023-04-01T02:16:00;53731.19;;;-139.68;100.00
10940;BME280;5522;42.696;23.494;2023-04-01T02:18:31;53697.00;;;-139.68;100.00
10940;BME280;5522;42.696;23.494;2023-04-01T02:21:02;53715.09;;;-139.68;100.00
10940;BME280;5522;42.696;23.494;2023-04-01T02:23:33;53713.09;;;-139.68;100.00
10940;BME280;5522;42.696;23.494;2023-04-01T02:26:01;53755.31;;;-139.68;100.00
10940;BME280;5522;42.696;23.494;2023-04-01T02:28:29;53771.38;;;-139.68;100.00
10940;BME280;5522;42.696;23.494;2023-04-01T02:30:57;53715.09;;;-139.68;100.00
10940;BME280;5522;42.696;23.494;2023-04-01T02:33:28;53775.41;;;-139.68;100.00
10940;BME280;5522;42.696;23.494;2023-04-01T02:35:56;53695.00;;;-139.68;100.00
10940;BME280;5522;42.696;23.494;2023-04-01T02:38:25;53743.25;;;-139.68;100.00
10940;BME280;5522;42.696;23.494;2023-04-01T02:40:57;53739.22;;;-139.68;100.00
10940;BME280;5522;42.696;23.494;2023-04-01T02:43:24;53729.16;;;-139.68;100.00
10940;BME280;5522;42.696;23.494;2023-04-01T02:45:51;53753.28;;;-139.68;100.00
10940;BME280;5522;42.696;23.494;2023-04-01T02:48:18;53733.19;;;-139.68;100.00
10940;BME280;5522;42.696;23.494;2023-04-01T02:50:45;53735.19;;;-139.68;100.00
10940;BME280;5522;42.696;23.494;2023-04-01T02:53:12;53725.16;;;-139.68;100.00
10940;BME280;5522;42.696;23.494;2023-04-01T02:55:40;53761.34;;;-139.68;100.00
10940;BME280;5522;42.696;23.494;2023-04-01T02:58:07;53763.34;;;-139.68;100.00
10940;BME280;5522;42.696;23.494;2023-04-01T03:00:34;53747.25;;;-139.68;100.00
10940;BME280;5522;42.696;23.494;2023-04-01T03:03:00;53723.13;;;-139.68;100.00
10940;BME280;5522;42.696;23.494;2023-04-01T03:05:28;53731.19;;;-139.68;100.00
10940;BME280;5522;42.696;23.494;2023-04-01T03:07:55;53739.22;;;-139.68;100.00
10940;BME280;5522;42.696;23.494;2023-04-01T03:10:22;53713.09;;;-139.68;100.00
10940;BME280;5522;42.696;23.494;2023-04-01T03:12:50;53747.25;;;-139.68;100.00
10940;BME280;5522;42.696;23.494;2023-04-01T03:15:17;53739.22;;;-139.68;100.00
10940;BME280;5522;42.696;23.494;2023-04-01T03:17:44;53781.44;;;-139.68;100.00
10940;BME280;5522;42.696;23.494;2023-04-01T03:20:12;53747.25;;;-139.68;100.00
10940;BME280;5522;42.696;23.494;2023-04-01T03:22:39;53749.28;;;-139.68;100.00
10940;BME280;5522;42.696;23.494;2023-04-01T03:25:07;53719.13;;;-139.68;100.00
10940;BME280;5522;42.696;23.494;2023-04-01T03:27:34;53745.25;;;-139.68;100.00
10940;BME280;5522;42.696;23.494;2023-04-01T03:30:03;53743.25;;;-139.68;100.00
10940;BME280;5522;42.696;23.494;2023-04-01T03:32:31;53727.16;;;-139.68;100.00
10940;BME280;5522;42.696;23.494;2023-04-01T03:34:57;53735.19;;;-139.68;100.00
10940;BME280;5522;42.696;23.494;2023-04-01T03:37:24;53727.16;;;-139.68;100.00
10940;BME280;5522;42.696;23.494;2023-04-01T03:39:51;53767.38;;;-139.68;100.00
10940;BME280;5522;42.696;23.494;2023-04-01T03:42:18;53727.16;;;-139.68;100.00
10940;BME280;5522;42.696;23.494;2023-04-01T03:44:45;53751.28;;;-139.68;100.00
10940;BME280;5522;42.696;23.494;2023-04-01T03:47:13;53739.22;;;-139.68;100.00
10940;BME280;5522;42.696;23.494;2023-04-01T03:49:40;53705.06;;;-139.68;100.00
10940;BME280;5522;42.696;23.494;2023-04-01T03:52:09;53747.25;;;-139.68;100.00
10940;BME280;5522;42.696;23.494;2023-04-01T03:54:36;53743.25;;;-139.68;100.00
10940;BME280;5522;42.696;23.494;2023-04-01T03:57:03;53717.13;;;-139.68;100.00
10940;BME280;5522;42.696;23.494;2023-04-01T03:59:30;53699.03;;;-139.68;100.00
10940;BME280;5522;42.696;23.494;2023-04-01T04:01:57;53743.25;;;-139.68;100.00
10940;BME280;5522;42.696;23.494;2023-04-01T04:04:26;53715.09;;;-139.68;100.00
10940;BME280;5522;42.696;23.494;2023-04-01T04:06:53;53731.19;;;-139.68;100.00
10940;BME280;5522;42.696;23.494;2023-04-01T04:09:20;53703.03;;;-139.68;100.00
10940;BME280;5522;42.696;23.494;2023-04-01T04:11:47;53749.28;;;-139.68;100.00
10940;BME280;5522;42.696;23.494;2023-04-01T04:14:13;53767.38;;;-139.68;100.00
10940;BME280;5522;42.696;23.494;2023-04-01T04:16:40;53743.25;;;-139.68;100.00
10940;BME280;5522;42.696;23.494;2023-04-01T04:19:07;53759.31;;;-139.68;100.00
10940;BME280;5522;42.696;23.494;2023-04-01T04:21:36;53759.31;;;-139.68;100.00
10940;BME280;5522;42.696;23.494;2023-04-01T04:24:03;53755.31;;;-139.68;100.00
10940;BME280;5522;42.696;23.494;2023-04-01T04:26:30;53731.19;;;-139.68;100.00
10940;BME280;5522;42.696;23.494;2023-04-01T04:28:56;53751.28;;;-139.68;100.00
10940;BME280;5522;42.696;23.494;2023-04-01T04:31:24;53715.09;;;-139.68;100.00
10940;BME280;5522;42.696;23.494;2023-04-01T04:33:51;53749.28;;;-139.68;100.00
10940;BME280;5522;42.696;23.494;2023-04-01T04:36:19;53715.09;;;-139.68;100.00
10940;BME280;5522;42.696;23.494;2023-04-01T04:38:48;53743.25;;;-139.68;100.00
10940;BME280;5522;42.696;23.494;2023-04-01T04:41:16;53725.16;;;-139.68;100.00
10940;BME280;5522;42.696;23.494;2023-04-01T04:43:49;53731.19;;;-139.68;100.00
10940;BME280;5522;42.696;23.494;2023-04-01T04:46:17;53747.25;;;-139.68;100.00
10940;BME280;5522;42.696;23.494;2023-04-01T04:48:44;53735.19;;;-139.68;100.00
10940;BME280;5522;42.696;23.494;2023-04-01T04:51:13;53731.19;;;-139.68;100.00
10940;BME280;5522;42.696;23.494;2023-04-01T04:53:40;53741.22;;;-139.68;100.00
10940;BME280;5522;42.696;23.494;2023-04-01T04:56:09;53751.28;;;-139.68;100.00
10940;BME280;5522;42.696;23.494;2023-04-01T04:58:36;53709.06;;;-139.68;100.00
10940;BME280;5522;42.696;23.494;2023-04-01T05:01:07;53709.06;;;-139.68;100.00
10940;BME280;5522;42.696;23.494;2023-04-01T05:03:34;53739.22;;;-139.68;100.00
10940;BME280;5522;42.696;23.494;2023-04-01T05:06:01;53739.22;;;-139.68;100.00
10940;BME280;5522;42.696;23.494;2023-04-01T05:08:28;53723.13;;;-139.68;100.00
10940;BME280;5522;42.696;23.494;2023-04-01T05:10:55;53725.16;;;-139.68;100.00
10940;BME280;5522;42.696;23.494;2023-04-01T05:13:23;53721.13;;;-139.68;100.00
10940;BME280;5522;42.696;23.494;2023-04-01T05:15:50;53729.16;;;-139.68;100.00
10940;BME280;5522;42.696;23.494;2023-04-01T05:18:17;53749.28;;;-139.68;100.00
10940;BME280;5522;42.696;23.494;2023-04-01T05:20:47;53743.25;;;-139.68;100.00
10940;BME280;5522;42.696;23.494;2023-04-01T05:23:15;53787.47;;;-139.68;100.00
10940;BME280;5522;42.696;23.494;2023-04-01T05:25:42;53727.16;;;-139.68;100.00
10940;BME280;5522;42.696;23.494;2023-04-01T05:28:10;53735.19;;;-139.68;100.00
10940;BME280;5522;42.696;23.494;2023-04-01T05:30:39;53729.16;;;-139.68;100.00
10940;BME280;5522;42.696;23.494;2023-04-01T05:33:07;53777.41;;;-139.68;100.00
10940;BME280;5522;42.696;23.494;2023-04-01T05:35:34;53755.31;;;-139.68;100.00
10940;BME280;5522;42.696;23.494;2023-04-01T05:38:01;53711.09;;;-139.68;100.00
10940;BME280;5522;42.696;23.494;2023-04-01T05:40:28;53735.19;;;-139.68;100.00
10940;BME280;5522;42.696;23.494;2023-04-01T05:42:55;53747.25;;;-139.68;100.00
10940;BME280;5522;42.696;23.494;2023-04-01T05:45:22;53749.28;;;-139.68;100.00
10940;BME280;5522;42.696;23.494;2023-04-01T05:47:50;53777.41;;;-139.68;100.00
10940;BME280;5522;42.696;23.494;2023-04-01T05:50:17;53775.41;;;-139.68;100.00
10940;BME280;5522;42.696;23.494;2023-04-01T05:52:45;53761.34;;;-139.68;100.00
10940;BME280;5522;42.696;23.494;2023-04-01T05:55:12;53775.41;;;-139.68;99.99
10940;BME280;5522;42.696;23.494;2023-04-01T05:57:39;53787.47;;;-139.68;92.05
10940;BME280;5522;42.696;23.494;2023-04-01T06:00:06;53801.53;;;-139.68;71.39
10940;BME280;5522;42.696;23.494;2023-04-01T06:02:33;53801.53;;;-139.68;54.97
10940;BME280;5522;42.696;23.494;2023-04-01T06:05:12;53799.53;;;-139.68;47.69
10940;BME280;5522;42.696;23.494;2023-04-01T06:07:41;53809.59;;;-139.68;44.51
10940;BME280;5522;42.696;23.494;2023-04-01T06:10:18;53795.50;;;-139.68;43.23
10940;BME280;5522;42.696;23.494;2023-04-01T06:12:51;53787.47;;;-139.68;41.68
10940;BME280;5522;42.696;23.494;2023-04-01T06:15:33;53803.56;;;-139.68;42.08
10940;BME280;5522;42.696;23.494;2023-04-01T06:21:17;53819.63;;;-139.68;49.00
10940;BME280;5522;42.696;23.494;2023-04-01T06:23:59;53807.56;;;-139.68;60.89
10940;BME280;5522;42.696;23.494;2023-04-01T06:26:34;53793.50;;;-139.68;68.40
10940;BME280;5522;42.696;23.494;2023-04-01T06:29:19;53783.44;;;-139.68;64.31
10940;BME280;5522;42.696;23.494;2023-04-01T06:32:01;53779.44;;;-139.68;68.99
10940;BME280;5522;42.696;23.494;2023-04-01T06:37:46;53787.47;;;-139.68;72.48
10940;BME280;5522;42.696;23.494;2023-04-01T06:43:15;53795.50;;;-139.68;72.86
10940;BME280;5522;42.696;23.494;2023-04-01T06:45:49;53783.44;;;-139.68;68.42
10940;BME280;5522;42.696;23.494;2023-04-01T06:48:34;53795.50;;;-139.68;67.33
10940;BME280;5522;42.696;23.494;2023-04-01T06:51:09;53783.44;;;-139.68;68.32
10940;BME280;5522;42.696;23.494;2023-04-01T06:53:47;53805.56;;;-139.68;66.95
10940;BME280;5522;42.696;23.494;2023-04-01T06:56:20;53799.53;;;-139.68;66.07
10940;BME280;5522;42.696;23.494;2023-04-01T06:58:51;53807.56;;;-139.68;64.29
10940;BME280;5522;42.696;23.494;2023-04-01T07:01:22;53781.44;;;-139.68;65.07
10940;BME280;5522;42.696;23.494;2023-04-01T07:03:54;53789.47;;;-139.68;64.30
10940;BME280;5522;42.696;23.494;2023-04-01T07:06:26;53805.56;;;-139.68;66.45
10940;BME280;5522;42.696;23.494;2023-04-01T07:08:59;53799.53;;;-139.68;64.74
10940;BME280;5522;42.696;23.494;2023-04-01T07:11:30;53783.44;;;-139.68;62.99
10940;BME280;5522;42.696;23.494;2023-04-01T07:14:00;53797.53;;;-139.68;61.22
10940;BME280;5522;42.696;23.494;2023-04-01T07:16:29;53767.38;;;-139.68;62.05
10940;BME280;5522;42.696;23.494;2023-04-01T07:19:02;53785.47;;;-139.68;62.54
10940;BME280;5522;42.696;23.494;2023-04-01T07:21:33;53791.50;;;-139.68;58.65
10940;BME280;5522;42.696;23.494;2023-04-01T07:24:05;53767.38;;;-139.68;56.58
10940;BME280;5522;42.696;23.494;2023-04-01T07:26:32;53799.53;;;-139.68;56.88
10940;BME280;5522;42.696;23.494;2023-04-01T07:28:59;53765.34;;;-139.68;55.85
10940;BME280;5522;42.696;23.494;2023-04-01T07:31:38;53819.63;;;-139.68;56.87
10940;BME280;5522;42.696;23.494;2023-04-01T07:34:12;53811.59;;;-139.68;55.45
10940;BME280;5522;42.696;23.494;2023-04-01T07:36:47;53819.63;;;-139.68;53.63
10940;BME280;5522;42.696;23.494;2023-04-01T07:39:28;53801.53;;;-139.68;51.68
10940;BME280;5522;42.696;23.494;2023-04-01T07:42:01;53819.63;;;-139.68;50.58
10940;BME280;5522;42.696;23.494;2023-04-01T07:44:36;53763.34;;;-139.68;52.71
10940;BME280;5522;42.696;23.494;2023-04-01T07:47:14;53767.38;;;-139.68;53.38
10940;BME280;5522;42.696;23.494;2023-04-01T07:49:51;53763.34;;;-139.68;54.68
10940;BME280;5522;42.696;23.494;2023-04-01T07:52:27;53763.34;;;-139.68;55.57
10940;BME280;5522;42.696;23.494;2023-04-01T07:55:03;53831.69;;;-139.68;55.64
10940;BME280;5522;42.696;23.494;2023-04-01T07:57:37;53777.41;;;-139.68;55.59
10940;BME280;5522;42.696;23.494;2023-04-01T08:00:12;53807.56;;;-139.68;57.32
10940;BME280;5522;42.696;23.494;2023-04-01T08:02:51;53805.56;;;-139.68;55.55
10940;BME280;5522;42.696;23.494;2023-04-01T08:05:26;53811.59;;;-139.68;54.94
10940;BME280;5522;42.696;23.494;2023-04-01T08:08:02;53807.56;;;-139.68;56.17
10940;BME280;5522;42.696;23.494;2023-04-01T08:10:39;53803.56;;;-139.68;57.41
10940;BME280;5522;42.696;23.494;2023-04-01T08:13:16;53775.41;;;-139.68;56.47
10940;BME280;5522;42.696;23.494;2023-04-01T08:15:53;53793.50;;;-139.68;52.83
10940;BME280;5522;42.696;23.494;2023-04-01T08:18:30;53809.59;;;-139.68;51.43
10940;BME280;5522;42.696;23.494;2023-04-01T08:21:15;53783.44;;;-139.68;50.32
10940;BME280;5522;42.696;23.494;2023-04-01T08:23:46;53765.34;;;-139.68;49.28
10940;BME280;5522;42.696;23.494;2023-04-01T08:26:21;53799.53;;;-139.68;48.07
10940;BME280;5522;42.696;23.494;2023-04-01T08:28:52;53775.41;;;-139.68;47.57
10940;BME280;5522;42.696;23.494;2023-04-01T08:31:25;53771.38;;;-139.68;47.18
10940;BME280;5522;42.696;23.494;2023-04-01T08:33:56;53767.38;;;-139.68;46.15
10940;BME280;5522;42.696;23.494;2023-04-01T08:36:24;53807.56;;;-139.68;46.04
10940;BME280;5522;42.696;23.494;2023-04-01T08:38:55;53783.44;;;-139.68;46.45
10940;BME280;5522;42.696;23.494;2023-04-01T08:45:07;53787.47;;;-139.68;41.88
10940;BME280;5522;42.696;23.494;2023-04-01T08:48:08;53805.56;;;-139.68;40.87
10940;BME280;5522;42.696;23.494;2023-04-01T08:54:05;53851.81;;;-139.68;36.33
10940;BME280;5522;42.696;23.494;2023-04-01T08:56:40;53799.53;;;-139.68;36.03
10940;BME280;5522;42.696;23.494;2023-04-01T09:05:26;53841.75;;;-139.68;32.61
10940;BME280;5522;42.696;23.494;2023-04-01T09:08:07;53797.53;;;-139.68;32.20
10940;BME280;5522;42.696;23.494;2023-04-01T09:10:47;53823.66;;;-139.68;32.14
10940;BME280;5522;42.696;23.494;2023-04-01T09:13:47;53845.78;;;-139.68;31.73
10940;BME280;5522;42.696;23.494;2023-04-01T09:16:30;53851.81;;;-139.68;31.43
10940;BME280;5522;42.696;23.494;2023-04-01T09:19:16;53888.00;;;-139.68;35.06
10940;BME280;5522;42.696;23.494;2023-04-01T09:22:05;53841.75;;;-139.68;35.95
10940;BME280;5522;42.696;23.494;2023-04-01T09:27:44;53847.78;;;-139.68;37.94
10940;BME280;5522;42.696;23.494;2023-04-01T09:30:37;53847.78;;;-139.68;38.31
10940;BME280;5522;42.696;23.494;2023-04-01T09:33:26;53900.06;;;-139.68;38.97
10940;BME280;5522;42.696;23.494;2023-04-01T09:36:04;53851.81;;;-139.68;39.44
10940;BME280;5522;42.696;23.494;2023-04-01T09:38:49;53855.81;;;-139.68;40.26
10940;BME280;5522;42.696;23.494;2023-04-01T09:41:28;53833.72;;;-139.68;40.61
10940;BME280;5522;42.696;23.494;2023-04-01T09:44:02;53849.78;;;-139.68;40.33
10940;BME280;5522;42.696;23.494;2023-04-01T09:46:42;53835.72;;;-139.68;40.56
10940;BME280;5522;42.696;23.494;2023-04-01T09:49:29;53845.78;;;-139.68;40.73
10940;BME280;5522;42.696;23.494;2023-04-01T09:52:11;53811.59;;;-139.68;41.00
10940;BME280;5522;42.696;23.494;2023-04-01T09:54:58;53841.75;;;-139.68;41.21
10940;BME280;5522;42.696;23.494;2023-04-01T10:01:18;53835.72;;;-139.68;41.06
10940;BME280;5522;42.696;23.494;2023-04-01T10:04:17;53841.75;;;-139.68;41.49
10940;BME280;5522;42.696;23.494;2023-04-01T10:07:29;53849.78;;;-139.68;41.40
10940;BME280;5522;42.696;23.494;2023-04-01T10:16:26;53851.81;;;-139.68;40.98
10940;BME280;5522;42.696;23.494;2023-04-01T10:19:18;53859.84;;;-139.68;41.12
10940;BME280;5522;42.696;23.494;2023-04-01T10:22:10;53851.81;;;-139.68;40.50
10940;BME280;5522;42.696;23.494;2023-04-01T10:25:05;53823.66;;;-139.68;40.48
10940;BME280;5522;42.696;23.494;2023-04-01T10:27:57;53807.56;;;-139.68;40.06
10940;BME280;5522;42.696;23.494;2023-04-01T10:31:02;53867.88;;;-139.68;39.86
10940;BME280;5522;42.696;23.494;2023-04-01T10:36:56;53885.97;;;-139.68;39.44
10940;BME280;5522;42.696;23.494;2023-04-01T10:39:57;53855.81;;;-139.68;38.30
10940;BME280;5522;42.696;23.494;2023-04-01T10:43:13;53843.75;;;-139.68;38.77
10940;BME280;5522;42.696;23.494;2023-04-01T10:46:26;53793.50;;;-139.68;39.21
10940;BME280;5522;42.696;23.494;2023-04-01T10:52:28;53843.75;;;-139.68;39.48
10940;BME280;5522;42.696;23.494;2023-04-01T10:55:14;53827.69;;;-139.68;39.03
10940;BME280;5522;42.696;23.494;2023-04-01T11:01:08;53845.78;;;-139.68;39.42
10940;BME280;5522;42.696;23.494;2023-04-01T11:07:30;53815.63;;;-139.68;40.50
10940;BME280;5522;42.696;23.494;2023-04-01T11:13:34;53819.63;;;-139.68;40.81
10940;BME280;5522;42.696;23.494;2023-04-01T11:16:33;53831.69;;;-139.68;41.10
10940;BME280;5522;42.696;23.494;2023-04-01T11:22:23;53839.75;;;-139.68;41.58
10940;BME280;5522;42.696;23.494;2023-04-01T11:25:20;53845.78;;;-139.68;41.81
10940;BME280;5522;42.696;23.494;2023-04-01T11:31:02;53855.81;;;-139.68;42.55
10940;BME280;5522;42.696;23.494;2023-04-01T11:33:34;53829.69;;;-139.68;42.40
10940;BME280;5522;42.696;23.494;2023-04-01T11:36:25;53853.81;;;-139.68;42.97
10940;BME280;5522;42.696;23.494;2023-04-01T11:39:14;53827.69;;;-139.68;42.07
10940;BME280;5522;42.696;23.494;2023-04-01T11:41:52;53873.91;;;-139.68;41.79
10940;BME280;5522;42.696;23.494;2023-04-01T11:44:26;53867.88;;;-139.68;42.38
10940;BME280;5522;42.696;23.494;2023-04-01T11:47:12;53813.59;;;-139.68;42.84
10940;BME280;5522;42.696;23.494;2023-04-01T11:49:52;53851.81;;;-139.68;44.47
10940;BME280;5522;42.696;23.494;2023-04-01T11:52:33;53843.75;;;-139.68;49.08
10940;BME280;5522;42.696;23.494;2023-04-01T11:55:20;53831.69;;;-139.68;53.22
10940;BME280;5522;42.696;23.494;2023-04-01T11:58:12;53829.69;;;-139.68;76.85
10940;BME280;5522;42.696;23.494;2023-04-01T12:00:58;53811.59;;;-139.68;96.61
10940;BME280;5522;42.696;23.494;2023-04-01T12:04:00;53829.69;;;-139.68;100.00
10940;BME280;5522;42.696;23.494;2023-04-01T12:06:35;53803.56;;;-139.68;100.00
10940;BME280;5522;42.696;23.494;2023-04-01T12:09:11;53809.59;;;-139.68;100.00
10940;BME280;5522;42.696;23.494;2023-04-01T12:11:45;53817.63;;;-139.68;100.00
10940;BME280;5522;42.696;23.494;2023-04-01T12:14:21;53831.69;;;-139.68;100.00
10940;BME280;5522;42.696;23.494;2023-04-01T12:16:58;53805.56;;;-139.68;100.00
10940;BME280;5522;42.696;23.494;2023-04-01T12:19:37;53819.63;;;-139.68;100.00
10940;BME280;5522;42.696;23.494;2023-04-01T12:22:20;53823.66;;;-139.68;100.00
10940;BME280;5522;42.696;23.494;2023-04-01T12:24:58;53813.59;;;-139.68;100.00
10940;BME280;5522;42.696;23.494;2023-04-01T12:27:52;53819.63;;;-139.68;100.00
10940;BME280;5522;42.696;23.494;2023-04-01T12:30:42;53863.88;;;-139.68;100.00
10940;BME280;5522;42.696;23.494;2023-04-01T12:33:44;53855.81;;;-139.68;100.00
10940;BME280;5522;42.696;23.494;2023-04-01T12:36:25;53819.63;;;-139.68;100.00
10940;BME280;5522;42.696;23.494;2023-04-01T12:39:14;53801.53;;;-139.68;100.00
10940;BME280;5522;42.696;23.494;2023-04-01T12:41:52;53833.72;;;-139.68;100.00
10940;BME280;5522;42.696;23.494;2023-04-01T12:44:32;53813.59;;;-139.68;100.00
10940;BME280;5522;42.696;23.494;2023-04-01T12:50:33;53829.69;;;-139.68;100.00
10940;BME280;5522;42.696;23.494;2023-04-01T12:53:20;53857.84;;;-139.68;100.00
10940;BME280;5522;42.696;23.494;2023-04-01T12:56:00;53835.72;;;-139.68;100.00
10940;BME280;5522;42.696;23.494;2023-04-01T12:58:59;53851.81;;;-139.68;100.00
10940;BME280;5522;42.696;23.494;2023-04-01T13:01:51;53849.78;;;-139.68;100.00
10940;BME280;5522;42.696;23.494;2023-04-01T13:07:34;53863.88;;;-139.68;100.00
10940;BME280;5522;42.696;23.494;2023-04-01T13:10:13;53847.78;;;-139.68;100.00
10940;BME280;5522;42.696;23.494;2023-04-01T13:13:09;53843.75;;;-139.68;100.00
10940;BME280;5522;42.696;23.494;2023-04-01T13:15:43;53851.81;;;-139.68;100.00
10940;BME280;5522;42.696;23.494;2023-04-01T13:18:21;53845.78;;;-139.68;100.00
10940;BME280;5522;42.696;23.494;2023-04-01T13:21:00;53807.56;;;-139.68;100.00
10940;BME280;5522;42.696;23.494;2023-04-01T13:23:44;53831.69;;;-139.68;100.00
10940;BME280;5522;42.696;23.494;2023-04-01T13:26:18;53839.75;;;-139.68;100.00
10940;BME280;5522;42.696;23.494;2023-04-01T13:28:52;53823.66;;;-139.68;100.00
10940;BME280;5522;42.696;23.494;2023-04-01T13:31:33;53803.56;;;-139.68;100.00
10940;BME280;5522;42.696;23.494;2023-04-01T13:34:14;53853.81;;;-139.68;100.00
10940;BME280;5522;42.696;23.494;2023-04-01T13:36:54;53823.66;;;-139.68;100.00
10940;BME280;5522;42.696;23.494;2023-04-01T13:39:35;53849.78;;;-139.68;100.00
10940;BME280;5522;42.696;23.494;2023-04-01T13:42:15;53843.75;;;-139.68;100.00
10940;BME280;5522;42.696;23.494;2023-04-01T13:44:48;53843.75;;;-139.68;100.00
10940;BME280;5522;42.696;23.494;2023-04-01T13:47:40;53831.69;;;-139.68;100.00
10940;BME280;5522;42.696;23.494;2023-04-01T13:50:32;53809.59;;;-139.68;100.00
10940;BME280;5522;42.696;23.494;2023-04-01T13:53:19;53855.81;;;-139.68;100.00
10940;BME280;5522;42.696;23.494;2023-04-01T13:56:13;53859.84;;;-139.68;100.00
10940;BME280;5522;42.696;23.494;2023-04-01T13:58:56;53867.88;;;-139.68;100.00
10940;BME280;5522;42.696;23.494;2023-04-01T14:01:31;53851.81;;;-139.68;100.00
10940;BME280;5522;42.696;23.494;2023-04-01T14:04:33;53823.66;;;-139.68;100.00
10940;BME280;5522;42.696;23.494;2023-04-01T14:07:15;53827.69;;;-139.68;100.00
10940;BME280;5522;42.696;23.494;2023-04-01T14:09:57;53847.78;;;-139.68;100.00
10940;BME280;5522;42.696;23.494;2023-04-01T14:12:36;53831.69;;;-139.68;100.00
10940;BME280;5522;42.696;23.494;2023-04-01T14:15:21;53807.56;;;-139.68;100.00
10940;BME280;5522;42.696;23.494;2023-04-01T14:17:57;53833.72;;;-139.68;100.00
10940;BME280;5522;42.696;23.494;2023-04-01T14:20:35;53859.84;;;-139.68;100.00
10940;BME280;5522;42.696;23.494;2023-04-01T14:23:16;53837.72;;;-139.68;100.00
10940;BME280;5522;42.696;23.494;2023-04-01T14:26:02;53835.72;;;-139.68;100.00